createdAt,value
2023-05-12T00:01:19.967Z,3.35
2023-05-12T00:03:48.287Z,3.38
2023-05-12T00:06:16.654Z,3.08
2023-05-12T00:08:46.137Z,3.15
2023-05-12T00:11:14.382Z,3.25
2023-05-12T00:13:42.662Z,3.20
2023-05-12T00:16:10.933Z,3.08
2023-05-12T00:18:39.199Z,3.33
2023-05-12T00:21:08.694Z,3.25
2023-05-12T00:23:38.736Z,3.10
2023-05-12T00:26:08.493Z,3.20
2023-05-12T00:28:36.653Z,2.80
2023-05-12T00:31:05.514Z,3.33
2023-05-12T00:33:33.769Z,2.88
2023-05-12T00:36:03.580Z,3.22
2023-05-12T00:38:31.766Z,3.35
2023-05-12T00:40:59.862Z,3.45
2023-05-12T00:43:29.346Z,3.20
2023-05-12T00:45:58.340Z,3.13
2023-05-12T00:48:26.659Z,3.20
2023-05-12T00:50:55.755Z,2.83
2023-05-12T00:53:24.524Z,3.13
2023-05-12T00:55:53.677Z,2.90
2023-05-12T00:58:21.827Z,3.20
2023-05-12T01:00:51.384Z,3.05
2023-05-12T01:03:20.094Z,3.60
2023-05-12T01:05:51.847Z,3.13
2023-05-12T01:08:21.853Z,3.10
2023-05-12T01:13:17.904Z,3.35
2023-05-12T01:15:49.123Z,3.20
2023-05-12T01:18:22.042Z,3.35
2023-05-12T01:20:51.162Z,2.92
2023-05-12T01:23:21.307Z,3.20
2023-05-12T01:25:51.303Z,2.92
2023-05-12T01:30:50.188Z,3.15
2023-05-12T01:33:18.447Z,3.00
2023-05-12T01:35:47.439Z,2.90
2023-05-12T01:38:15.595Z,3.50
2023-05-12T01:40:43.758Z,3.05
2023-05-12T01:43:11.933Z,3.60
2023-05-12T01:45:41.400Z,3.17
2023-05-12T01:48:09.535Z,2.97
2023-05-12T01:50:37.788Z,3.03
2023-05-12T01:53:05.929Z,3.17
2023-05-12T01:55:34.542Z,3.10
2023-05-12T01:58:02.664Z,3.03
2023-05-12T02:00:30.795Z,3.00
2023-05-12T02:03:00.452Z,3.22
2023-05-12T02:05:28.675Z,3.00
2023-05-12T02:07:56.813Z,3.30
2023-05-12T02:10:24.934Z,3.40
2023-05-12T02:12:53.078Z,2.92
2023-05-12T02:15:21.669Z,2.95
2023-05-12T02:17:53.932Z,2.95
2023-05-12T02:20:23.563Z,3.00
2023-05-12T02:22:51.672Z,3.30
2023-05-12T02:25:19.873Z,3.33
2023-05-12T02:27:48.046Z,3.25
2023-05-12T02:30:16.310Z,3.08
2023-05-12T02:32:44.449Z,3.28
2023-05-12T02:35:12.626Z,3.10
2023-05-12T02:37:42.200Z,2.95
2023-05-12T02:40:11.338Z,3.33
2023-05-12T02:42:40.351Z,2.97
2023-05-12T02:45:10.266Z,3.07
2023-05-12T02:50:07.539Z,2.53
2023-05-12T02:52:35.704Z,2.60
2023-05-12T02:55:05.605Z,2.92
2023-05-12T03:00:04.644Z,3.03
2023-05-12T03:02:32.955Z,2.88
2023-05-12T03:05:01.172Z,3.00
2023-05-12T03:07:29.401Z,2.63
2023-05-12T03:09:58.516Z,2.80
2023-05-12T03:12:29.367Z,2.80
2023-05-12T03:14:57.528Z,2.85
2023-05-12T03:17:25.737Z,2.72
2023-05-12T03:19:53.915Z,2.47
2023-05-12T03:22:22.159Z,3.22
2023-05-12T03:24:50.315Z,2.83
2023-05-12T03:27:18.501Z,3.13
2023-05-12T03:29:47.987Z,2.78
2023-05-12T03:32:16.772Z,2.85
2023-05-12T03:34:44.923Z,2.88
2023-05-12T03:37:13.062Z,2.90
2023-05-12T03:39:41.234Z,2.55
2023-05-12T03:42:09.517Z,2.60
2023-05-12T03:44:37.679Z,2.63
2023-05-12T03:47:07.781Z,2.60
2023-05-12T03:49:36.022Z,2.88
2023-05-12T03:52:04.229Z,3.22
2023-05-12T03:54:32.409Z,3.13
2023-05-12T03:57:00.551Z,2.80
2023-05-12T03:59:31.429Z,2.92
2023-05-12T04:01:59.701Z,2.85
2023-05-12T04:04:29.315Z,2.90
2023-05-12T04:06:57.539Z,2.63
2023-05-12T04:09:25.689Z,2.67
2023-05-12T04:11:53.887Z,2.80
2023-05-12T04:14:31.881Z,2.63
2023-05-12T04:17:08.131Z,2.40
2023-05-12T04:19:37.645Z,2.80
2023-05-12T04:22:06.181Z,2.60
2023-05-12T04:24:34.290Z,2.72
2023-05-12T04:27:02.431Z,2.55
2023-05-12T04:29:30.531Z,2.65
2023-05-12T04:32:00.086Z,2.70
2023-05-12T04:34:28.263Z,2.65
2023-05-12T04:36:57.830Z,3.03
2023-05-12T04:39:25.952Z,2.88
2023-05-12T04:41:54.111Z,2.42
2023-05-12T04:44:22.560Z,2.35
2023-05-12T04:46:53.476Z,2.60
2023-05-12T04:49:21.660Z,2.80
2023-05-12T04:51:49.954Z,2.67
2023-05-12T04:54:19.488Z,2.92
2023-05-12T04:56:47.606Z,2.60
2023-05-12T04:59:16.534Z,2.67
2023-05-12T05:01:44.812Z,2.50
2023-05-12T05:04:12.991Z,2.67
2023-05-12T05:06:41.122Z,2.80
2023-05-12T05:09:09.300Z,2.50
2023-05-12T05:11:38.903Z,2.40
2023-05-12T05:14:07.066Z,2.20
2023-05-12T05:16:35.702Z,2.78
2023-05-12T05:19:06.457Z,2.30
2023-05-12T05:21:35.653Z,2.40
2023-05-12T05:24:03.845Z,2.28
2023-05-12T05:26:32.035Z,2.33
2023-05-12T05:29:02.285Z,2.60
2023-05-12T05:31:30.440Z,2.28
2023-05-12T05:33:58.614Z,2.35
2023-05-12T05:36:27.337Z,2.35
2023-05-12T05:38:55.487Z,2.58
2023-05-12T05:41:23.781Z,2.53
2023-05-12T05:43:51.948Z,2.25
2023-05-12T05:46:21.500Z,1.95
2023-05-12T05:48:49.666Z,2.22
2023-05-12T05:51:17.814Z,2.10
2023-05-12T05:53:45.909Z,2.25
2023-05-12T05:56:14.078Z,2.30
2023-05-12T05:58:42.205Z,1.92
2023-05-12T06:01:10.367Z,2.10
2023-05-12T06:03:39.980Z,2.30
2023-05-12T06:06:08.425Z,2.20
2023-05-12T06:08:36.622Z,2.28
2023-05-12T06:11:05.053Z,2.40
2023-05-12T06:13:33.171Z,2.53
2023-05-12T06:16:01.321Z,2.22
2023-05-12T06:18:29.496Z,2.53
2023-05-12T06:20:59.071Z,2.50
2023-05-12T06:23:27.388Z,2.20
2023-05-12T06:25:55.533Z,2.20
2023-05-12T06:28:23.687Z,2.17
2023-05-12T06:30:51.798Z,2.70
2023-05-12T06:33:19.936Z,2.08
2023-05-12T06:35:48.491Z,2.28
2023-05-12T06:38:18.127Z,1.92
2023-05-12T06:40:46.242Z,2.22
2023-05-12T06:43:14.947Z,2.33
2023-05-12T06:45:43.130Z,2.28
2023-05-12T06:48:11.971Z,2.33
2023-05-12T06:50:40.220Z,2.20
2023-05-12T06:53:08.356Z,2.35
2023-05-12T06:55:37.879Z,2.53
2023-05-12T06:58:06.060Z,2.70
2023-05-12T07:00:34.254Z,2.17
2023-05-12T07:03:02.402Z,1.90
2023-05-12T07:05:30.794Z,1.67
2023-05-12T07:07:59.300Z,1.88
2023-05-12T07:10:27.751Z,1.63
2023-05-12T07:12:57.241Z,1.83
2023-05-12T07:15:25.497Z,1.65
2023-05-12T07:17:55.461Z,1.83
2023-05-12T07:20:23.933Z,1.40
2023-05-12T07:22:52.545Z,1.80
2023-05-12T07:25:21.104Z,1.50
2023-05-12T07:27:49.961Z,1.98
2023-05-12T07:30:20.084Z,1.77
2023-05-12T07:32:48.230Z,1.75
2023-05-12T07:35:16.433Z,1.55
2023-05-12T07:37:44.560Z,1.92
2023-05-12T07:40:13.272Z,2.00
2023-05-12T07:42:41.538Z,1.80
2023-05-12T07:45:10.450Z,1.83
2023-05-12T07:47:40.104Z,1.80
2023-05-12T07:50:08.727Z,2.38
2023-05-12T07:52:37.318Z,1.50
2023-05-12T07:55:05.851Z,1.63
2023-05-12T07:57:34.022Z,1.70
2023-05-12T08:00:02.172Z,1.92
2023-05-12T08:02:30.395Z,1.50
2023-05-12T08:04:59.947Z,1.50
2023-05-12T08:07:28.116Z,1.63
2023-05-12T08:09:56.313Z,1.80
2023-05-12T08:12:24.501Z,1.48
2023-05-12T08:14:52.666Z,1.50
2023-05-12T08:17:20.955Z,1.48
2023-05-12T08:19:49.146Z,1.45
2023-05-12T08:22:18.951Z,1.50
2023-05-12T08:24:47.512Z,1.40
2023-05-12T08:27:15.672Z,1.55
2023-05-12T08:29:43.904Z,1.35
2023-05-12T08:32:12.111Z,1.48
2023-05-12T08:34:40.373Z,1.60
2023-05-12T08:37:08.512Z,1.70
2023-05-12T08:39:38.334Z,1.30
2023-05-12T08:42:17.451Z,1.48
2023-05-12T08:44:45.917Z,1.60
2023-05-12T08:47:14.587Z,1.50
2023-05-12T08:49:46.980Z,0.80
2023-05-12T08:52:21.938Z,0.98
2023-05-12T08:54:56.318Z,1.20
2023-05-12T08:57:27.397Z,0.98
2023-05-12T08:59:59.506Z,1.20
2023-05-12T09:02:41.033Z,0.82
2023-05-12T09:05:13.368Z,0.90
2023-05-12T09:07:45.593Z,1.05
2023-05-12T09:10:32.729Z,1.10
2023-05-12T09:13:05.573Z,0.95
2023-05-12T09:15:37.419Z,1.20
2023-05-12T09:18:06.030Z,1.15
2023-05-12T09:20:34.848Z,0.98
2023-05-12T09:23:14.530Z,1.10
2023-05-12T09:25:44.332Z,0.90
2023-05-12T09:28:12.521Z,0.88
2023-05-12T09:30:42.588Z,0.90
2023-05-12T09:33:12.590Z,0.90
2023-05-12T09:35:41.770Z,1.00
2023-05-12T09:38:11.270Z,1.17
2023-05-12T09:40:39.618Z,1.05
2023-05-12T09:43:09.805Z,1.00
2023-05-12T09:45:38.978Z,0.90
2023-05-12T09:48:11.999Z,1.00
2023-05-12T09:50:51.206Z,1.00
2023-05-12T09:53:22.999Z,1.02
2023-05-12T09:55:51.460Z,1.70
2023-05-12T09:58:22.126Z,1.30
2023-05-12T10:01:13.511Z,1.63
2023-05-12T10:03:43.674Z,1.50
2023-05-12T10:06:16.181Z,1.42
2023-05-12T10:08:50.103Z,1.65
2023-05-12T10:11:18.648Z,1.50
2023-05-12T10:13:48.618Z,1.37
2023-05-12T10:16:17.643Z,1.63
2023-05-12T10:18:46.681Z,1.42
2023-05-12T10:21:15.198Z,1.40
2023-05-12T10:23:45.192Z,1.63
2023-05-12T10:26:13.883Z,1.65
2023-05-12T10:28:43.028Z,1.50
2023-05-12T10:33:40.754Z,1.42
2023-05-12T10:36:18.567Z,1.50
2023-05-12T10:38:50.212Z,1.20
2023-05-12T10:41:18.743Z,1.23
2023-05-12T10:43:51.724Z,2.90
2023-05-12T10:46:22.549Z,1.98
2023-05-12T10:48:55.899Z,1.95
2023-05-12T10:51:26.511Z,1.70
2023-05-12T10:53:58.169Z,1.33
2023-05-12T10:56:28.315Z,1.42
2023-05-12T10:59:12.980Z,1.20
2023-05-12T11:01:57.465Z,1.45
2023-05-12T11:04:37.701Z,1.08
2023-05-12T11:07:07.926Z,1.10
2023-05-12T11:09:43.275Z,1.15
2023-05-12T11:12:18.968Z,1.27
2023-05-12T11:14:48.206Z,1.17
2023-05-12T11:17:17.802Z,1.20
2023-05-12T11:19:48.079Z,1.13
2023-05-12T11:22:19.227Z,0.95
2023-05-12T11:24:47.956Z,1.13
2023-05-12T11:27:24.092Z,1.10
2023-05-12T11:29:59.418Z,1.30
2023-05-12T11:32:29.986Z,1.10
2023-05-12T11:35:09.817Z,1.17
2023-05-12T11:37:39.277Z,1.48
2023-05-12T11:40:15.661Z,1.30
2023-05-12T11:42:48.337Z,1.30
2023-05-12T11:45:24.747Z,1.55
2023-05-12T11:47:54.775Z,1.45
2023-05-12T11:50:24.880Z,1.60
2023-05-12T11:52:54.496Z,1.50
2023-05-12T11:55:24.571Z,1.75
2023-05-12T11:58:00.457Z,1.55
2023-05-12T12:00:31.093Z,1.42
2023-05-12T12:03:15.061Z,1.40
2023-05-12T12:05:45.967Z,1.42
2023-05-12T12:08:16.254Z,1.45
2023-05-12T12:10:45.872Z,1.73
2023-05-12T12:13:14.649Z,1.65
2023-05-12T12:15:42.837Z,1.67
2023-05-12T12:18:12.474Z,1.80
2023-05-12T12:20:40.695Z,1.77
2023-05-12T12:23:08.885Z,1.67
2023-05-12T12:25:37.394Z,1.67
2023-05-12T12:28:15.089Z,2.40
2023-05-12T12:30:43.297Z,2.00
2023-05-12T12:33:13.061Z,1.90
2023-05-12T12:35:43.794Z,1.95
2023-05-12T12:38:11.932Z,1.88
2023-05-12T12:40:46.574Z,1.70
2023-05-12T12:43:15.105Z,1.90
2023-05-12T12:45:43.235Z,1.80
2023-05-12T12:48:13.041Z,1.85
2023-05-12T12:50:41.336Z,1.80
2023-05-12T12:53:09.822Z,2.03
2023-05-12T12:55:38.013Z,2.13
2023-05-12T12:58:06.196Z,2.13
2023-05-12T13:00:34.547Z,2.00
2023-05-12T13:03:03.253Z,2.20
2023-05-12T13:05:32.832Z,1.80
2023-05-12T13:08:00.985Z,1.80
2023-05-12T13:10:29.241Z,1.65
2023-05-12T13:12:57.376Z,1.58
2023-05-12T13:15:25.952Z,1.73
2023-05-12T13:17:54.448Z,1.67
2023-05-12T13:20:22.863Z,1.88
2023-05-12T13:22:52.622Z,1.50
2023-05-12T13:25:20.946Z,2.10
2023-05-12T13:27:49.334Z,1.73
2023-05-12T13:30:17.535Z,2.20
2023-05-12T13:32:46.870Z,2.42
2023-05-12T13:35:15.036Z,2.78
2023-05-12T13:37:43.203Z,2.17
2023-05-12T13:40:13.715Z,2.35
2023-05-12T13:42:42.019Z,2.05
2023-05-12T13:45:11.414Z,2.25
2023-05-12T13:47:39.604Z,2.50
2023-05-12T13:50:09.094Z,2.30
2023-05-12T13:52:37.503Z,2.20
2023-05-12T13:55:06.246Z,2.30
2023-05-12T13:57:35.848Z,2.47
2023-05-12T14:00:04.618Z,2.55
2023-05-12T14:02:34.353Z,2.20
2023-05-12T14:05:02.631Z,2.50
2023-05-12T14:07:30.816Z,2.60
2023-05-12T14:10:00.445Z,2.17
2023-05-12T14:12:28.753Z,2.63
2023-05-12T14:15:07.329Z,2.40
2023-05-12T14:17:48.085Z,2.40
2023-05-12T14:20:16.359Z,2.30
2023-05-12T14:22:44.537Z,2.15
2023-05-12T14:25:13.022Z,2.20
2023-05-12T14:27:41.142Z,2.63
2023-05-12T14:30:11.779Z,2.22
2023-05-12T14:32:39.973Z,2.30
2023-05-12T14:35:09.576Z,2.53
2023-05-12T14:37:37.794Z,2.50
2023-05-12T14:40:07.357Z,2.33
2023-05-12T14:42:35.509Z,2.08
2023-05-12T14:45:03.864Z,2.45
2023-05-12T14:47:33.404Z,2.53
2023-05-12T14:50:01.659Z,1.98
2023-05-12T14:52:29.791Z,2.70
2023-05-12T14:54:57.951Z,2.58
2023-05-12T14:57:26.232Z,2.33
2023-05-12T14:59:59.063Z,2.05
2023-05-12T15:02:28.994Z,2.45
2023-05-12T15:04:58.549Z,2.00
2023-05-12T15:07:26.754Z,2.17
2023-05-12T15:09:55.129Z,2.13
2023-05-12T15:12:23.351Z,2.10
2023-05-12T15:14:51.631Z,2.10
2023-05-12T15:17:19.927Z,2.33
2023-05-12T15:19:48.070Z,2.28
2023-05-12T15:22:17.601Z,1.85
2023-05-12T15:24:45.732Z,2.20
2023-05-12T15:27:14.020Z,2.08
2023-05-12T15:29:42.646Z,2.55
2023-05-12T15:32:11.261Z,1.85
2023-05-12T15:34:39.482Z,2.08
2023-05-12T15:37:11.683Z,1.88
2023-05-12T15:39:41.247Z,2.00
2023-05-12T15:42:10.690Z,1.80
2023-05-12T15:44:40.573Z,2.10
2023-05-12T15:47:08.749Z,1.70
2023-05-12T15:49:36.892Z,2.00
2023-05-12T15:52:05.501Z,2.42
2023-05-12T15:54:33.659Z,2.17
2023-05-12T15:57:04.065Z,1.95
2023-05-12T15:59:32.322Z,2.20
2023-05-12T16:02:00.500Z,1.90
2023-05-12T16:04:29.836Z,2.13
2023-05-12T16:09:26.625Z,1.90
2023-05-12T16:11:57.383Z,1.80
2023-05-12T16:14:26.955Z,1.80
2023-05-12T16:16:55.107Z,1.70
2023-05-12T16:19:23.409Z,2.10
2023-05-12T16:21:51.562Z,2.00
2023-05-12T16:24:19.785Z,1.70
2023-05-12T16:26:47.926Z,2.20
2023-05-12T16:29:16.068Z,1.88
2023-05-12T16:31:45.652Z,2.20
2023-05-12T16:34:13.800Z,2.25
2023-05-12T16:36:42.022Z,2.20
2023-05-12T16:39:10.941Z,2.00
2023-05-12T16:41:39.181Z,2.45
2023-05-12T16:44:07.564Z,2.00
2023-05-12T16:46:36.149Z,2.20
2023-05-12T16:49:05.931Z,1.57
2023-05-12T16:51:34.154Z,2.40
2023-05-12T16:54:02.723Z,2.50
2023-05-12T16:56:30.898Z,2.30
2023-05-12T16:58:59.001Z,2.58
2023-05-12T17:01:27.172Z,1.95
2023-05-12T17:03:55.504Z,2.38
2023-05-12T17:06:25.227Z,2.23
2023-05-12T17:08:53.395Z,2.75
2023-05-12T17:11:21.651Z,3.03
2023-05-12T17:13:49.872Z,3.20
2023-05-12T17:16:18.142Z,3.08
2023-05-12T17:21:17.755Z,4.10
2023-05-12T17:23:47.325Z,3.85
2023-05-12T17:26:15.814Z,4.00
2023-05-12T17:28:43.976Z,4.00
2023-05-12T17:31:12.204Z,4.15
2023-05-12T17:33:40.402Z,4.38
2023-05-12T17:36:12.878Z,3.83
2023-05-12T17:38:41.848Z,4.30
2023-05-12T17:41:11.458Z,4.60
2023-05-12T17:43:39.613Z,4.32
2023-05-12T17:46:09.113Z,3.88
2023-05-12T17:48:38.858Z,4.07
2023-05-12T17:51:07.553Z,4.00
2023-05-12T17:53:35.827Z,3.80
2023-05-12T17:56:04.049Z,4.43
2023-05-12T17:58:33.772Z,3.80
2023-05-12T18:01:01.977Z,4.50
2023-05-12T18:03:30.283Z,3.97
2023-05-12T18:05:58.516Z,4.53
2023-05-12T18:08:27.283Z,4.55
2023-05-12T18:10:55.486Z,4.05
2023-05-12T18:13:23.644Z,4.65
2023-05-12T18:15:53.146Z,4.95
2023-05-12T18:18:21.428Z,4.47
2023-05-12T18:20:49.631Z,5.22
2023-05-12T18:23:17.787Z,4.75
2023-05-12T18:25:46.960Z,4.78
2023-05-12T18:28:15.124Z,4.30
2023-05-12T18:30:43.304Z,4.85
2023-05-12T18:33:12.854Z,4.28
2023-05-12T18:35:41.014Z,4.13
2023-05-12T18:38:09.177Z,4.80
2023-05-12T18:40:37.418Z,5.00
2023-05-12T18:43:05.566Z,4.70
2023-05-12T18:45:33.753Z,4.72
2023-05-12T18:48:01.911Z,4.70
2023-05-12T18:50:31.456Z,4.97
2023-05-12T18:55:27.623Z,4.47
2023-05-12T18:57:55.805Z,5.22
2023-05-12T19:00:26.154Z,4.93
2023-05-12T19:02:54.653Z,4.88
2023-05-12T19:05:23.076Z,4.90
2023-05-12T19:07:52.911Z,4.97
2023-05-12T19:12:50.985Z,5.32
2023-05-12T19:15:19.394Z,5.10
2023-05-12T19:17:47.751Z,4.82
2023-05-12T19:20:18.113Z,5.38
2023-05-12T19:22:46.760Z,4.93
2023-05-12T19:25:17.979Z,5.10
2023-05-12T19:27:46.320Z,5.10
2023-05-12T19:30:15.894Z,4.72
2023-05-12T19:35:16.018Z,4.97
2023-05-12T19:37:44.486Z,5.10
2023-05-12T19:40:13.176Z,5.25
2023-05-12T19:42:45.307Z,5.17
2023-05-12T19:45:14.972Z,4.82
2023-05-12T19:50:11.821Z,5.20
2023-05-12T19:52:39.973Z,5.57
2023-05-12T19:55:09.621Z,5.10
2023-05-12T19:57:38.277Z,5.53
2023-05-12T20:00:09.304Z,5.20
2023-05-12T20:02:37.659Z,4.88
2023-05-12T20:05:07.077Z,5.47
2023-05-12T20:07:35.218Z,4.78
2023-05-12T20:10:03.708Z,5.32
2023-05-12T20:12:31.811Z,5.57
2023-05-12T20:14:59.969Z,5.00
2023-05-12T20:17:29.511Z,3.22
2023-05-12T20:22:26.073Z,4.18
2023-05-12T20:24:54.213Z,4.18
2023-05-12T20:27:22.361Z,4.47
2023-05-12T20:29:50.667Z,3.78
2023-05-12T20:32:18.824Z,4.30
2023-05-12T20:34:48.355Z,4.10
2023-05-12T20:37:17.391Z,3.95
2023-05-12T20:39:45.628Z,4.07
2023-05-12T20:42:15.446Z,4.25
2023-05-12T20:44:43.575Z,4.45
2023-05-12T20:47:12.053Z,3.92
2023-05-12T20:49:40.986Z,4.15
2023-05-12T20:52:10.508Z,4.27
2023-05-12T20:54:38.748Z,4.13
2023-05-12T20:57:07.327Z,4.45
2023-05-12T20:59:35.464Z,4.60
2023-05-12T21:02:03.705Z,4.25
2023-05-12T21:04:31.889Z,4.20
2023-05-12T21:07:00.240Z,4.13
2023-05-12T21:09:29.744Z,4.68
2023-05-12T21:11:58.661Z,4.47
2023-05-12T21:14:26.806Z,4.13
2023-05-12T21:16:55.045Z,4.10
2023-05-12T21:19:23.338Z,4.22
2023-05-12T21:21:51.500Z,4.05
2023-05-12T21:24:19.646Z,4.88
2023-05-12T21:26:49.165Z,4.30
2023-05-12T21:29:17.772Z,4.38
2023-05-12T21:31:47.443Z,3.97
2023-05-12T21:34:15.744Z,3.90
2023-05-12T21:36:43.899Z,3.65
2023-05-12T21:39:12.177Z,3.90
2023-05-12T21:41:44.996Z,3.97
2023-05-12T21:44:41.184Z,4.30
2023-05-12T21:47:09.354Z,4.07
2023-05-12T21:49:37.628Z,3.92
2023-05-12T21:52:06.580Z,3.92
2023-05-12T21:54:34.748Z,4.00
2023-05-12T21:57:02.928Z,4.15
2023-05-12T21:59:32.442Z,3.97
2023-05-12T22:02:00.713Z,3.90
2023-05-12T22:04:28.862Z,3.92
2023-05-12T22:06:57.024Z,4.35
2023-05-12T22:09:25.157Z,4.07
2023-05-12T22:11:53.316Z,3.50
2023-05-12T22:14:21.930Z,3.67
2023-05-12T22:16:51.552Z,3.67
2023-05-12T22:21:47.983Z,4.13
2023-05-12T22:24:16.522Z,4.47
2023-05-12T22:26:44.659Z,4.13
2023-05-12T22:29:12.844Z,3.70
2023-05-12T22:31:41.258Z,3.80
2023-05-12T22:34:10.940Z,3.78
2023-05-12T22:39:07.032Z,3.72
2023-05-12T22:41:35.159Z,4.18
2023-05-12T22:44:03.326Z,4.30
2023-05-12T22:46:31.599Z,4.18
2023-05-12T22:48:59.787Z,3.83
2023-05-12T22:51:29.359Z,4.35
2023-05-12T22:53:57.495Z,3.92
2023-05-12T22:56:25.635Z,3.92
2023-05-12T22:58:53.815Z,4.00
2023-05-12T23:01:22.010Z,3.83
2023-05-12T23:03:50.247Z,4.07
2023-05-12T23:06:18.470Z,4.22
2023-05-12T23:08:48.187Z,3.95
2023-05-12T23:13:44.344Z,4.13
2023-05-12T23:16:12.538Z,3.80
2023-05-12T23:18:40.748Z,4.18
2023-05-12T23:21:08.921Z,4.60
2023-05-12T23:23:37.091Z,4.10
2023-05-12T23:26:06.726Z,4.00
2023-05-12T23:28:34.836Z,4.03
2023-05-12T23:31:03.387Z,4.43
2023-05-12T23:33:31.744Z,4.10
2023-05-12T23:36:00.077Z,4.32
2023-05-12T23:38:28.300Z,4.00
2023-05-12T23:40:56.653Z,4.15
2023-05-12T23:43:27.006Z,4.00
2023-05-12T23:45:55.347Z,3.97
2023-05-12T23:48:23.586Z,4.13
2023-05-12T23:50:51.980Z,4.07
2023-05-12T23:53:20.218Z,4.45
2023-05-12T23:55:48.379Z,4.00
2023-05-12T23:58:16.592Z,4.60
